• Join FlightAware (Why Join?)
  • Login
  • US Flag 
01:12AM EDT


 

Airport Tracker/Info


-or-


 

Live Flight TrackerFlight Track Log ✈ EJM685 ✈ 10-Nov-2013 ✈ KPBI - KTEB

Flight Track Log - Related Links

Times and Time Zones

All times are in EST time to prevent confusion due to time zone crossing. See the EJM685 flight status page for this flight to view local times or setup timezone preferences in your user account.

Time Position Orientation Groundspeed Altitude Reporting Facility
EST Latitude Longitude Course Direction KTS MPH feet Rate Location/Type
01:54PM 26.7283 -79.9572 North 248 285 7,500  Level Miami Center
01:55PM 26.7883 -79.8958 42° Northeast 272 313 10,800 2,760 Climbing Miami Center
01:56PM 26.8547 -79.8139 48° Northeast 319 367 13,100 2,580 Climbing Miami Center
01:57PM 26.9128 -79.7267 53° Northeast 368 423 16,000 2,580 Climbing Miami Center
01:58PM 26.9794 -79.6258 53° Northeast 393 452 18,300 2,700 Climbing Miami Center
01:59PM 27.3300 -79.8607 North  Level Estimated
01:59PM 27.0547 -79.5064 55° Northeast 417 480 21,500  Level Miami Center
02:00PM 27.1278 -79.3936 54° Northeast 426 490 22,400 600 Climbing Miami Center
02:01PM 27.1986 -79.2808 55° Northeast 432 497 22,800 300 Climbing Miami Center
02:02PM 27.2672 -79.1769 53° Northeast 451 519 23,000 60 Climbing Miami Center
02:03PM 27.3400 -79.0639 54° Northeast 451 519 23,000 1,080 Level Miami Center
02:04PM 27.4169 -78.9367 56° Northeast 446 513 25,200 1,500 Climbing Miami Center
02:05PM 27.5000 -78.8233 50° Northeast 455 524 26,000 420 Climbing Miami Center
02:06PM 27.6092 -78.7831 18° North 433 498 26,100 900 Climbing Miami Center
02:07PM 27.7347 -78.7686 North 434 499 27,900 2,100 Climbing Miami Center
02:08PM 27.8767 -78.7569 North 460 529 30,300 2,220 Climbing Miami Center
02:09PM 28.0064 -78.7450 North 466 536 32,400 2,460 Climbing Miami Center
02:10PM 28.1361 -78.7308 North 466 536 35,300 2,580 Climbing Miami Center
02:11PM 28.2594 -78.7139 North 458 527 37,600 2,100 Climbing Miami Center
02:12PM 28.3828 -78.6972 North 453 521 39,600 1,860 Climbing Miami Center
02:13PM 28.4936 -78.6822 North 443 510 41,400 1,380 Climbing Miami Center
02:14PM 28.6169 -78.6678 North 443 510 42,400 1,020 Climbing Miami Center
02:15PM 28.7361 -78.6508 North 443 510 43,500 960 Climbing Miami Center
02:16PM 28.8553 -78.6339 North 443 510 44,400 660 Climbing Miami Center
02:17PM 28.9828 -78.6192 North 443 510 44,900 300 Climbing Miami Center
02:18PM 29.1061 -78.6044 North 443 510 45,000  Climbing Miami Center
02:19PM 29.2314 -78.5875 North 449 517 45,000  Level Miami Center
02:20PM 29.3608 -78.5706 North 449 517 45,000  Level Miami Center
02:21PM 29.4883 -78.5533 North 459 528 45,000  Level Miami Center
02:22PM 29.6158 -78.5386 North 465 535 45,000  Level Miami Center
02:23PM 29.7411 -78.5192 North 460 529 45,000  Level Miami Center
02:24PM 29.8486 -78.5036 North 466 536 45,000  Level Jacksonville Center
02:25PM 29.9775 -78.4881 North 458 527 45,000  Level Jacksonville Center
02:26PM 30.0856 -78.4711 North 453 521 45,000  Level Jacksonville Center
02:27PM 30.2164 -78.4581 North 462 532 45,000  Level Jacksonville Center
02:28PM 30.3389 -78.4356 North 449 517 45,000  Level Jacksonville Center
02:29PM 30.4719 -78.4197 North 464 534 45,000  Level Jacksonville Center
02:30PM 30.6008 -78.4039 North 464 534 45,000  Level Jacksonville Center
02:31PM 30.7275 -78.3858 North 458 527 45,000  Level Jacksonville Center
02:32PM 30.8583 -78.3675 North 463 533 45,000  Level Jacksonville Center
02:33PM 30.9850 -78.3517 North 463 533 45,000  Level Jacksonville Center
02:34PM 31.1119 -78.3358 North 458 527 45,000  Level Jacksonville Center
02:35PM 31.2406 -78.3175 North 463 533 45,000  Level Jacksonville Center
02:36PM 31.3675 -78.3017 North 458 527 45,000  Level Jacksonville Center
02:37PM 31.4939 -78.2833 North 458 527 45,000  Level Jacksonville Center
02:38PM 31.6225 -78.2597 North 458 527 45,000  Level Jacksonville Center
02:39PM 31.7511 -78.2386 North 458 527 45,000  Level Jacksonville Center
02:40PM 31.8758 -78.2203 North 458 527 45,000  Level Jacksonville Center
02:41PM 32.0069 -78.2136 North 458 527 45,000  Level Jacksonville Center
02:42PM 32.1336 -78.1922 North 458 527 45,000  Level Jacksonville Center
02:43PM 32.2622 -78.1708 North 458 527 45,000  Level Jacksonville Center
02:44PM 32.3889 -78.1569 North 458 527 45,000  Level Jacksonville Center
02:45PM 32.5156 -78.1356 North 458 527 45,000  Level Jacksonville Center
02:46PM 32.6422 -78.1192 North 458 527 45,000  Level Jacksonville Center
02:47PM 32.7689 -78.1000 North 458 527 45,000  Level Jacksonville Center
02:48PM 32.8997 -78.0833 North 458 527 45,000  Level Jacksonville Center
02:49PM 33.0283 -78.0639 North 458 527 45,000  Level Jacksonville Center
02:50PM 33.1528 -78.0472 North 458 527 45,000  Level Jacksonville Center
02:51PM 33.2817 -78.0303 North 463 533 45,000  Level Jacksonville Center
02:53PM 33.4947 -77.9994 North 480 552 45,000  Level Washington Center
02:54PM 33.6264 -77.9808 North 480 552 45,000  Level Washington Center
02:55PM 33.7519 -77.9619 North 468 539 45,000  Level Washington Center
02:56PM 33.8900 -77.9433 North 461 531 45,000  Level Washington Center
02:57PM 34.0114 -77.9244 North 468 539 45,000  Level Washington Center
02:58PM 34.1386 -77.9228 North 468 539 45,000  Level Washington Center
02:59PM 34.2661 -77.9164 North 462 532 45,000  Level Washington Center
03:00PM 34.4100 -77.9181 359° North 466 536 45,000  Level Washington Center
03:01PM 34.5353 -77.9139 North 456 525 45,000  Level Washington Center
03:02PM 34.6625 -77.9125 North 456 525 45,000  Level Washington Center
03:03PM 34.7900 -77.9061 North 456 525 45,000  Level Washington Center
03:04PM 34.9172 -77.9019 North 456 525 45,000  Level Washington Center
03:05PM 35.0447 -77.8956 North 456 525 45,000  Level Washington Center
03:06PM 35.1719 -77.8942 North 456 525 45,000  Level Washington Center
03:07PM 35.2994 -77.8900 North 456 525 45,000  Level Washington Center
03:08PM 35.4247 -77.8836 North 456 525 45,000  Level Washington Center
03:09PM 35.5519 -77.8819 North 456 525 45,000  Level Washington Center
03:10PM 35.6794 -77.8806 North 456 525 45,000  Level Washington Center
03:11PM 35.8047 -77.8764 North 456 525 45,000  Level Washington Center
03:12PM 35.9297 -77.8750 North 456 525 45,000  Level Washington Center
03:13PM 36.0572 -77.8711 North 456 525 45,000  Level Washington Center
03:14PM 36.1844 -77.8669 North 456 525 45,000  Level Washington Center
03:15PM 36.3119 -77.8553 North 456 525 45,000  Level Washington Center
03:16PM 36.4108 -77.8142 18° North 461 531 45,000  Level Washington Center
03:17PM 36.5478 -77.7508 20° North 461 531 45,000  Level Washington Center
03:18PM 36.6739 -77.6947 20° North 474 545 45,000  Level Washington Center
03:19PM 36.7978 -77.6383 20° North 474 545 45,000  Level Washington Center
03:20PM 36.9242 -77.5794 20° North 474 545 45,000  Level Washington Center
03:21PM 37.0481 -77.5228 20° North 474 545 45,000 -2,040 Level Washington Center
03:22PM 37.1742 -77.4661 20° North 474 545 41,000 -1,020 Descending Washington Center
03:23PM 37.3003 -77.4089 20° North 474 545 43,000 180 Climbing Washington Center
03:24PM 37.4283 -77.3492 20° North 474 545 41,400 -1,620 Descending Washington Center
03:25PM 37.5586 -77.2894 20° North 484 557 39,900 -1,260 Descending Washington Center
03:26PM 37.6844 -77.2292 21° North 484 557 38,900 -960 Descending Washington Center
03:27PM 37.8103 -77.1689 21° North 484 557 38,000 -1,320 Descending Washington Center
03:28PM 37.9322 -77.1108 21° North 484 557 36,400 -1,740 Descending Washington Center
03:29PM 38.0558 -77.0528 20° North 473 544 34,500 1,260 Descending Washington Center
03:30PM 38.1756 -76.9942 21° North 468 539 39,000 -1,740 Climbing Washington Center
03:31PM 38.2947 -76.9647 11° North 451 519 31,000 -4,740 Descending Washington Center
03:32PM 38.4094 -76.9669 359° North 424 488 29,400 -1,020 Descending Washington Center
03:33PM 38.5219 -76.9664 360° North 419 482 29,000 -240 Descending Washington Center
03:34PM 38.6386 -76.9631 North 412 474 29,000  Level Washington Center
03:35PM 38.7533 -76.9625 360° North 412 474 29,000 -180 Level Washington Center
03:36PM 38.8606 -76.8872 29° Northeast 407 468 28,700 -1,020 Descending Washington Center
03:37PM 38.9286 -76.7444 58° Northeast 415 478 27,000 -1,740 Descending Washington Center
03:38PM 38.9906 -76.5958 62° Northeast 437 503 25,300 -1,560 Descending Washington Center
03:39PM 39.0500 -76.4550 61° Northeast 449 517 24,000 -720 Descending Washington Center
03:40PM 39.1114 -76.3111 61° Northeast 449 517 24,000  Level Washington Center
03:41PM 39.1892 -76.1861 51° Northeast 449 517 24,000  Level Washington Center
03:42PM 39.2917 -76.0717 41° Northeast 443 510 24,000 -1,440 Level Washington Center
03:44PM 39.5000 -75.8833 35° Northeast 405 466 19,700 -2,100 Descending Philadelphia TRACON
03:45PM 39.5833 -75.8000 38° Northeast 387 445 17,400 -2,100 Descending Philadelphia TRACON
03:46PM 39.6667 -75.7167 38° Northeast 360 414 15,600 -1,920 Descending Philadelphia TRACON
03:47PM 39.7333 -75.6500 38° Northeast 334 384 13,800 -1,380 Descending Philadelphia TRACON
03:48PM 39.8167 -75.5833 32° Northeast 334 384 12,900 -480 Descending Philadelphia TRACON
03:49PM 39.9000 -75.5167 32° Northeast 376 433 12,900  Level Philadelphia TRACON
03:50PM 39.9833 -75.4333 37° Northeast 375 432 12,900  Level Philadelphia TRACON
03:51PM 40.0667 -75.3500 37° Northeast 376 433 12,900  Level Philadelphia TRACON
03:52PM 40.1500 -75.2833 31° Northeast 371 427 12,900 -360 Level Philadelphia TRACON
03:53PM 40.2167 -75.2000 44° Northeast 334 384 12,200 -1,620 Descending Philadelphia TRACON
03:55PM 40.3833 -75.0333 37° Northeast 284 327 7,400 -1,800 Descending New York TRACON
03:56PM 40.4333 -74.9667 45° Northeast 278 320 6,100 -1,380 Descending New York TRACON
03:57PM 40.4833 -74.8833 52° Northeast 284 327 4,700 -1,080 Descending New York TRACON
03:58PM 40.5333 -74.8167 45° Northeast 272 313 4,000 -360 Descending New York TRACON
03:59PM 40.5833 -74.7333 52° Northeast 269 310 4,000  Level New York TRACON
04:00PM 40.6500 -74.6833 30° Northeast 271 312 4,000  Level New York TRACON
04:01PM 40.7167 -74.6167 37° Northeast 271 312 4,000  Level New York TRACON
04:02PM 40.7667 -74.5667 37° Northeast 270 311 4,000 -360 Level New York TRACON
04:03PM 40.8333 -74.5000 37° Northeast 272 313 3,400 -480 Descending New York TRACON
04:04PM 40.9000 -74.4500 30° Northeast 265 305 3,000 -240 Descending New York TRACON
04:05PM 40.9500 -74.3833 45° Northeast 266 306 3,000  Level New York TRACON
04:06PM 40.9833 -74.3000 62° Northeast 284 327 3,000 -300 Level New York TRACON
04:07PM 41.0000 -74.2167 75° East 256 295 2,500 -540 Descending New York TRACON
04:08PM 41.0167 -74.1333 75° East 222 255 2,000 -300 Descending New York TRACON
04:09PM 41.0167 -74.0667 90° East 217 250 2,000 -60 Level New York TRACON
04:10PM 40.9667 -74.0500 166° South 167 192 1,900 -360 Descending New York TRACON
04:11PM 40.9333 -74.0333 159° South 162 186 1,300 -480 Descending New York TRACON
04:12PM 40.8833 -74.0167 166° South 155 178 1,000 -540 Descending New York TRACON
04:13PM 40.8667 -74.0500 237° Southwest 126 145 300 -720 Descending New York TRACON
04:15PM 40.8500 -74.0500 111° Southeast  Level FlightAware Approximate
04:22PM 40.8501 -74.0608 111° Southeast  Level Estimated
04:23PM 40.8501 -74.0608 111° Southeast  Level Estimated
04:24PM 40.8501 -74.0608 111° Southeast  Level Estimated
04:25PM 40.8501 -74.0608 111° Southeast  Level Estimated
04:26PM 40.8501 -74.0608 111° Southeast  Level Estimated